sensor_id;sensor_type;location;lat;lon;timestamp;pressure;altitude;pressure_sealevel;temperature;humidity
7058;BME280;3570;43.080;25.628;2024-03-02T00:02:19;-19726.91;;;9.38;100.00
7058;BME280;3570;43.080;25.628;2024-03-02T00:05:04;-19729.53;;;9.47;100.00
7058;BME280;3570;43.080;25.628;2024-03-02T00:07:56;-19730.84;;;9.52;100.00
7058;BME280;3570;43.080;25.628;2024-03-02T00:10:40;-19723.84;;;9.28;100.00
7058;BME280;3570;43.080;25.628;2024-03-02T00:13:25;-19726.19;;;9.36;100.00
7058;BME280;3570;43.080;25.628;2024-03-02T00:16:09;-19718.44;;;9.09;100.00
7058;BME280;3570;43.080;25.628;2024-03-02T00:18:55;-19714.31;;;8.95;100.00
7058;BME280;3570;43.080;25.628;2024-03-02T00:21:39;-19714.47;;;8.96;100.00
7058;BME280;3570;43.080;25.628;2024-03-02T00:24:32;-19718.00;;;9.08;100.00
7058;BME280;3570;43.080;25.628;2024-03-02T00:27:17;-19719.44;;;9.13;100.00
7058;BME280;3570;43.080;25.628;2024-03-02T00:30:46;-19722.06;;;9.22;100.00
7058;BME280;3570;43.080;25.628;2024-03-02T00:33:45;-19720.75;;;9.17;100.00
7058;BME280;3570;43.080;25.628;2024-03-02T00:36:29;-19720.47;;;9.16;100.00
7058;BME280;3570;43.080;25.628;2024-03-02T00:39:17;-19719.75;;;9.14;100.00
7058;BME280;3570;43.080;25.628;2024-03-02T00:42:01;-19718.72;;;9.10;100.00
7058;BME280;3570;43.080;25.628;2024-03-02T00:44:45;-19720.91;;;9.18;100.00
7058;BME280;3570;43.080;25.628;2024-03-02T00:47:31;-19721.34;;;9.19;100.00
7058;BME280;3570;43.080;25.628;2024-03-02T00:50:16;-19720.03;;;9.15;100.00
7058;BME280;3570;43.080;25.628;2024-03-02T00:53:01;-19713.88;;;8.94;100.00
7058;BME280;3570;43.080;25.628;2024-03-02T00:55:46;-19715.34;;;8.99;100.00
7058;BME280;3570;43.080;25.628;2024-03-02T00:58:32;-19717.56;;;9.06;100.00
7058;BME280;3570;43.080;25.628;2024-03-02T01:01:16;-19716.81;;;9.04;100.00
7058;BME280;3570;43.080;25.628;2024-03-02T01:04:01;-19713.31;;;8.92;100.00
7058;BME280;3570;43.080;25.628;2024-03-02T01:06:44;-19715.66;;;9.00;100.00
7058;BME280;3570;43.080;25.628;2024-03-02T01:09:29;-19711.56;;;8.86;100.00
7058;BME280;3570;43.080;25.628;2024-03-02T01:12:13;-19712.44;;;8.89;100.00
7058;BME280;3570;43.080;25.628;2024-03-02T01:14:57;-19707.59;;;8.72;100.00
7058;BME280;3570;43.080;25.628;2024-03-02T01:17:41;-19698.38;;;8.40;100.00
7058;BME280;3570;43.080;25.628;2024-03-02T01:20:25;-19707.47;;;8.72;100.00
7058;BME280;3570;43.080;25.628;2024-03-02T01:23:09;-19708.78;;;8.76;100.00
7058;BME280;3570;43.080;25.628;2024-03-02T01:25:54;-19712.72;;;8.90;100.00
7058;BME280;3570;43.080;25.628;2024-03-02T01:28:39;-19714.78;;;8.97;100.00
7058;BME280;3570;43.080;25.628;2024-03-02T01:31:23;-19712.72;;;8.90;100.00
7058;BME280;3570;43.080;25.628;2024-03-02T01:34:08;-19707.75;;;8.73;100.00
7058;BME280;3570;43.080;25.628;2024-03-02T01:36:52;-19708.63;;;8.76;100.00
7058;BME280;3570;43.080;25.628;2024-03-02T01:39:36;-19709.34;;;8.78;100.00
7058;BME280;3570;43.080;25.628;2024-03-02T01:42:20;-19709.94;;;8.80;100.00
7058;BME280;3570;43.080;25.628;2024-03-02T01:45:05;-19703.81;;;8.59;100.00
7058;BME280;3570;43.080;25.628;2024-03-02T01:47:50;-19694.28;;;8.26;100.00
7058;BME280;3570;43.080;25.628;2024-03-02T01:50:35;-19704.81;;;8.63;100.00
7058;BME280;3570;43.080;25.628;2024-03-02T01:53:19;-19706.13;;;8.67;100.00
7058;BME280;3570;43.080;25.628;2024-03-02T01:56:03;-19707.59;;;8.72;100.00
7058;BME280;3570;43.080;25.628;2024-03-02T01:58:47;-19705.69;;;8.66;100.00
7058;BME280;3570;43.080;25.628;2024-03-02T02:01:31;-19705.69;;;8.66;100.00
7058;BME280;3570;43.080;25.628;2024-03-02T02:04:15;-19703.06;;;8.57;100.00
7058;BME280;3570;43.080;25.628;2024-03-02T02:06:59;-19709.50;;;8.79;100.00
7058;BME280;3570;43.080;25.628;2024-03-02T02:09:44;-19713.00;;;8.91;100.00
7058;BME280;3570;43.080;25.628;2024-03-02T02:12:28;-19711.56;;;8.86;100.00
7058;BME280;3570;43.080;25.628;2024-03-02T02:15:30;-19710.38;;;8.82;100.00
7058;BME280;3570;43.080;25.628;2024-03-02T02:18:15;-19712.56;;;8.89;100.00
7058;BME280;3570;43.080;25.628;2024-03-02T02:20:59;-19714.19;;;8.95;100.00
7058;BME280;3570;43.080;25.628;2024-03-02T02:23:43;-19716.81;;;9.04;100.00
7058;BME280;3570;43.080;25.628;2024-03-02T02:26:32;-19714.47;;;8.96;100.00
7058;BME280;3570;43.080;25.628;2024-03-02T02:29:16;-19713.88;;;8.94;100.00
7058;BME280;3570;43.080;25.628;2024-03-02T02:32:01;-19715.22;;;8.98;100.00
7058;BME280;3570;43.080;25.628;2024-03-02T02:34:45;-19706.88;;;8.70;100.00
7058;BME280;3570;43.080;25.628;2024-03-02T02:37:29;-19714.47;;;8.96;100.00
7058;BME280;3570;43.080;25.628;2024-03-02T02:40:13;-19716.22;;;9.02;100.00
7058;BME280;3570;43.080;25.628;2024-03-02T02:42:58;-19714.78;;;8.97;100.00
7058;BME280;3570;43.080;25.628;2024-03-02T02:45:43;-19713.16;;;8.91;100.00
7058;BME280;3570;43.080;25.628;2024-03-02T02:48:26;-19715.94;;;9.01;100.00
7058;BME280;3570;43.080;25.628;2024-03-02T02:51:10;-19715.94;;;9.01;100.00
7058;BME280;3570;43.080;25.628;2024-03-02T02:53:54;-19714.78;;;8.97;100.00
7058;BME280;3570;43.080;25.628;2024-03-02T02:56:38;-19715.22;;;8.98;100.00
7058;BME280;3570;43.080;25.628;2024-03-02T02:59:22;-19715.34;;;8.99;100.00
7058;BME280;3570;43.080;25.628;2024-03-02T03:02:06;-19713.31;;;8.92;100.00
7058;BME280;3570;43.080;25.628;2024-03-02T03:04:50;-19711.25;;;8.85;100.00
7058;BME280;3570;43.080;25.628;2024-03-02T03:07:34;-19709.06;;;8.77;100.00
7058;BME280;3570;43.080;25.628;2024-03-02T03:10:19;-19709.22;;;8.78;100.00
7058;BME280;3570;43.080;25.628;2024-03-02T03:13:05;-19714.63;;;8.96;100.00
7058;BME280;3570;43.080;25.628;2024-03-02T03:15:52;-19712.13;;;8.88;100.00
7058;BME280;3570;43.080;25.628;2024-03-02T03:18:36;-19706.28;;;8.68;100.00
7058;BME280;3570;43.080;25.628;2024-03-02T03:21:20;-19712.56;;;8.89;100.00
7058;BME280;3570;43.080;25.628;2024-03-02T03:24:05;-19715.06;;;8.98;100.00
7058;BME280;3570;43.080;25.628;2024-03-02T03:26:49;-19714.78;;;8.97;100.00
7058;BME280;3570;43.080;25.628;2024-03-02T03:29:33;-19713.00;;;8.91;100.00
7058;BME280;3570;43.080;25.628;2024-03-02T03:32:17;-19707.59;;;8.72;100.00
7058;BME280;3570;43.080;25.628;2024-03-02T03:35:01;-19703.22;;;8.57;100.00
7058;BME280;3570;43.080;25.628;2024-03-02T03:37:45;-19712.28;;;8.88;100.00
7058;BME280;3570;43.080;25.628;2024-03-02T03:40:29;-19710.81;;;8.83;100.00
7058;BME280;3570;43.080;25.628;2024-03-02T03:43:13;-19714.31;;;8.95;100.00
7058;BME280;3570;43.080;25.628;2024-03-02T03:45:57;-19714.63;;;8.96;100.00
7058;BME280;3570;43.080;25.628;2024-03-02T03:48:41;-19705.13;;;8.64;100.00
7058;BME280;3570;43.080;25.628;2024-03-02T03:51:25;-19713.16;;;8.91;100.00
7058;BME280;3570;43.080;25.628;2024-03-02T03:54:09;-19713.88;;;8.94;100.00
7058;BME280;3570;43.080;25.628;2024-03-02T03:56:54;-19715.22;;;8.98;100.00
7058;BME280;3570;43.080;25.628;2024-03-02T03:59:40;-19714.31;;;8.95;100.00
7058;BME280;3570;43.080;25.628;2024-03-02T04:02:24;-19711.69;;;8.86;100.00
7058;BME280;3570;43.080;25.628;2024-03-02T04:05:08;-19710.97;;;8.84;100.00
7058;BME280;3570;43.080;25.628;2024-03-02T04:07:54;-19703.66;;;8.59;100.00
7058;BME280;3570;43.080;25.628;2024-03-02T04:10:38;-19708.34;;;8.75;100.00
7058;BME280;3570;43.080;25.628;2024-03-02T04:13:23;-19708.34;;;8.75;100.00
7058;BME280;3570;43.080;25.628;2024-03-02T04:16:07;-19707.16;;;8.71;100.00
7058;BME280;3570;43.080;25.628;2024-03-02T04:18:51;-19708.03;;;8.74;100.00
7058;BME280;3570;43.080;25.628;2024-03-02T04:21:35;-19708.03;;;8.74;100.00
7058;BME280;3570;43.080;25.628;2024-03-02T04:24:20;-19708.19;;;8.74;100.00
7058;BME280;3570;43.080;25.628;2024-03-02T04:27:04;-19710.81;;;8.83;100.00
7058;BME280;3570;43.080;25.628;2024-03-02T04:29:48;-19711.69;;;8.86;100.00
7058;BME280;3570;43.080;25.628;2024-03-02T04:32:32;-19713.59;;;8.93;100.00
7058;BME280;3570;43.080;25.628;2024-03-02T04:35:16;-19710.81;;;8.83;100.00
7058;BME280;3570;43.080;25.628;2024-03-02T04:38:00;-19714.78;;;8.97;100.00
7058;BME280;3570;43.080;25.628;2024-03-02T04:40:44;-19714.31;;;8.95;100.00
7058;BME280;3570;43.080;25.628;2024-03-02T04:43:28;-19713.00;;;8.91;100.00
7058;BME280;3570;43.080;25.628;2024-03-02T04:46:12;-19711.56;;;8.86;100.00
7058;BME280;3570;43.080;25.628;2024-03-02T04:48:56;-19708.19;;;8.74;100.00
7058;BME280;3570;43.080;25.628;2024-03-02T04:51:41;-19700.16;;;8.46;100.00
7058;BME280;3570;43.080;25.628;2024-03-02T04:54:25;-19703.06;;;8.57;100.00
7058;BME280;3570;43.080;25.628;2024-03-02T04:57:09;-19705.13;;;8.64;100.00
7058;BME280;3570;43.080;25.628;2024-03-02T04:59:53;-19704.25;;;8.61;100.00
7058;BME280;3570;43.080;25.628;2024-03-02T05:02:37;-19708.03;;;8.74;100.00
7058;BME280;3570;43.080;25.628;2024-03-02T05:05:21;-19700.00;;;8.46;100.00
7058;BME280;3570;43.080;25.628;2024-03-02T05:08:05;-19698.38;;;8.40;100.00
7058;BME280;3570;43.080;25.628;2024-03-02T05:10:50;-19701.91;;;8.52;100.00
7058;BME280;3570;43.080;25.628;2024-03-02T05:13:36;-19702.47;;;8.54;100.00
7058;BME280;3570;43.080;25.628;2024-03-02T05:16:21;-19703.38;;;8.57;100.00
7058;BME280;3570;43.080;25.628;2024-03-02T05:19:06;-19702.19;;;8.53;100.00
7058;BME280;3570;43.080;25.628;2024-03-02T05:21:50;-19701.16;;;8.50;100.00
7058;BME280;3570;43.080;25.628;2024-03-02T05:24:35;-19702.03;;;8.53;100.00
7058;BME280;3570;43.080;25.628;2024-03-02T05:27:20;-19699.84;;;8.45;100.00
7058;BME280;3570;43.080;25.628;2024-03-02T05:30:05;-19697.38;;;8.37;100.00
7058;BME280;3570;43.080;25.628;2024-03-02T05:32:50;-19702.78;;;8.55;100.00
7058;BME280;3570;43.080;25.628;2024-03-02T05:35:34;-19706.44;;;8.68;100.00
7058;BME280;3570;43.080;25.628;2024-03-02T05:38:18;-19708.63;;;8.76;100.00
7058;BME280;3570;43.080;25.628;2024-03-02T05:41:02;-19703.06;;;8.57;100.00
7058;BME280;3570;43.080;25.628;2024-03-02T05:43:47;-19693.25;;;8.23;100.00
7058;BME280;3570;43.080;25.628;2024-03-02T05:46:31;-19698.09;;;8.39;100.00
7058;BME280;3570;43.080;25.628;2024-03-02T05:49:15;-19705.41;;;8.65;100.00
7058;BME280;3570;43.080;25.628;2024-03-02T05:51:59;-19709.50;;;8.79;100.00
7058;BME280;3570;43.080;25.628;2024-03-02T05:54:43;-19712.44;;;8.89;100.00
7058;BME280;3570;43.080;25.628;2024-03-02T05:57:27;-19707.03;;;8.70;100.00
7058;BME280;3570;43.080;25.628;2024-03-02T06:00:29;-19712.72;;;8.90;100.00
7058;BME280;3570;43.080;25.628;2024-03-02T06:03:15;-19707.59;;;8.72;100.00
7058;BME280;3570;43.080;25.628;2024-03-02T06:05:59;-19697.06;;;8.36;100.00
7058;BME280;3570;43.080;25.628;2024-03-02T06:08:43;-19702.19;;;8.53;100.00
7058;BME280;3570;43.080;25.628;2024-03-02T06:11:27;-19704.25;;;8.61;100.00
7058;BME280;3570;43.080;25.628;2024-03-02T06:14:11;-19701.63;;;8.51;100.00
7058;BME280;3570;43.080;25.628;2024-03-02T06:16:55;-19705.69;;;8.66;100.00
7058;BME280;3570;43.080;25.628;2024-03-02T06:22:56;-19710.97;;;8.84;100.00
7058;BME280;3570;43.080;25.628;2024-03-02T06:25:40;-19711.25;;;8.85;100.00
7058;BME280;3570;43.080;25.628;2024-03-02T06:28:24;-19703.38;;;8.57;100.00
7058;BME280;3570;43.080;25.628;2024-03-02T06:31:09;-19711.84;;;8.87;100.00
7058;BME280;3570;43.080;25.628;2024-03-02T06:33:54;-19714.78;;;8.97;100.00
7058;BME280;3570;43.080;25.628;2024-03-02T06:36:38;-19714.78;;;8.97;100.00
7058;BME280;3570;43.080;25.628;2024-03-02T06:39:24;-19710.53;;;8.82;100.00
7058;BME280;3570;43.080;25.628;2024-03-02T06:42:08;-19714.03;;;8.94;100.00
7058;BME280;3570;43.080;25.628;2024-03-02T06:44:52;-19709.94;;;8.80;100.00
7058;BME280;3570;43.080;25.628;2024-03-02T06:47:36;-19702.34;;;8.54;100.00
7058;BME280;3570;43.080;25.628;2024-03-02T06:50:20;-19702.94;;;8.56;100.00
7058;BME280;3570;43.080;25.628;2024-03-02T06:53:04;-19700.00;;;8.46;100.00
7058;BME280;3570;43.080;25.628;2024-03-02T06:55:48;-19712.00;;;8.87;100.00
7058;BME280;3570;43.080;25.628;2024-03-02T06:58:32;-19718.88;;;9.11;100.00
7058;BME280;3570;43.080;25.628;2024-03-02T07:01:15;-19727.03;;;9.39;100.00
7058;BME280;3570;43.080;25.628;2024-03-02T07:04:00;-19726.75;;;9.38;100.00
7058;BME280;3570;43.080;25.628;2024-03-02T07:06:44;-19727.34;;;9.40;100.00
7058;BME280;3570;43.080;25.628;2024-03-02T07:09:28;-19735.38;;;9.68;100.00
7058;BME280;3570;43.080;25.628;2024-03-02T07:12:12;-19741.38;;;9.88;100.00
7058;BME280;3570;43.080;25.628;2024-03-02T07:14:56;-19748.97;;;10.14;100.00
7058;BME280;3570;43.080;25.628;2024-03-02T07:17:49;-19746.50;;;10.06;100.00
7058;BME280;3570;43.080;25.628;2024-03-02T07:20:33;-19742.09;;;9.91;100.00
7058;BME280;3570;43.080;25.628;2024-03-02T07:23:17;-19758.75;;;10.48;100.00
7058;BME280;3570;43.080;25.628;2024-03-02T07:26:01;-19757.88;;;10.45;100.00
7058;BME280;3570;43.080;25.628;2024-03-02T07:28:46;-19759.78;;;10.52;100.00
7058;BME280;3570;43.080;25.628;2024-03-02T07:31:31;-19760.97;;;10.56;100.00
7058;BME280;3570;43.080;25.628;2024-03-02T07:34:15;-19761.84;;;10.59;100.00
7058;BME280;3570;43.080;25.628;2024-03-02T07:36:59;-19751.59;;;10.23;100.00
7058;BME280;3570;43.080;25.628;2024-03-02T07:39:44;-19740.78;;;9.86;100.00
7058;BME280;3570;43.080;25.628;2024-03-02T07:42:29;-19749.72;;;10.17;100.00
7058;BME280;3570;43.080;25.628;2024-03-02T07:45:14;-19761.69;;;10.58;100.00
7058;BME280;3570;43.080;25.628;2024-03-02T07:47:57;-19765.19;;;10.70;100.00
7058;BME280;3570;43.080;25.628;2024-03-02T07:50:42;-19758.31;;;10.47;100.00
7058;BME280;3570;43.080;25.628;2024-03-02T07:53:27;-19760.22;;;10.53;100.00
7058;BME280;3570;43.080;25.628;2024-03-02T07:56:11;-19766.50;;;10.75;100.00
7058;BME280;3570;43.080;25.628;2024-03-02T07:58:55;-19747.38;;;10.09;100.00
7058;BME280;3570;43.080;25.628;2024-03-02T08:01:41;-19757.88;;;10.45;100.00
7058;BME280;3570;43.080;25.628;2024-03-02T08:04:25;-19768.84;;;10.83;100.00
7058;BME280;3570;43.080;25.628;2024-03-02T08:07:09;-19772.06;;;10.94;100.00
7058;BME280;3570;43.080;25.628;2024-03-02T08:09:53;-19768.56;;;10.82;100.00
7058;BME280;3570;43.080;25.628;2024-03-02T08:12:37;-19775.69;;;11.06;100.00
7058;BME280;3570;43.080;25.628;2024-03-02T08:15:21;-19774.69;;;11.03;100.00
7058;BME280;3570;43.080;25.628;2024-03-02T08:18:06;-19777.91;;;11.14;100.00
7058;BME280;3570;43.080;25.628;2024-03-02T08:20:50;-19776.44;;;11.09;100.00
7058;BME280;3570;43.080;25.628;2024-03-02T08:23:35;-19763.16;;;10.63;100.00
7058;BME280;3570;43.080;25.628;2024-03-02T08:26:19;-19758.31;;;10.47;100.00
7058;BME280;3570;43.080;25.628;2024-03-02T08:29:02;-19759.19;;;10.50;100.00
7058;BME280;3570;43.080;25.628;2024-03-02T08:31:47;-19787.38;;;11.47;100.00
7058;BME280;3570;43.080;25.628;2024-03-02T08:34:31;-19790.00;;;11.56;100.00
7058;BME280;3570;43.080;25.628;2024-03-02T08:37:15;-19789.28;;;11.53;100.00
7058;BME280;3570;43.080;25.628;2024-03-02T08:39:59;-19790.59;;;11.58;100.00
7058;BME280;3570;43.080;25.628;2024-03-02T08:42:44;-19782.13;;;11.28;100.00
7058;BME280;3570;43.080;25.628;2024-03-02T08:45:28;-19791.47;;;11.61;100.00
7058;BME280;3570;43.080;25.628;2024-03-02T08:48:12;-19790.31;;;11.57;100.00
7058;BME280;3570;43.080;25.628;2024-03-02T08:50:56;-19787.81;;;11.48;100.00
7058;BME280;3570;43.080;25.628;2024-03-02T08:53:40;-19783.72;;;11.34;100.00
7058;BME280;3570;43.080;25.628;2024-03-02T08:56:24;-19798.19;;;11.84;100.00
7058;BME280;3570;43.080;25.628;2024-03-02T08:59:08;-19800.97;;;11.93;100.00
7058;BME280;3570;43.080;25.628;2024-03-02T09:01:52;-19803.00;;;12.00;100.00
7058;BME280;3570;43.080;25.628;2024-03-02T09:04:37;-19804.75;;;12.06;100.00
7058;BME280;3570;43.080;25.628;2024-03-02T09:07:21;-19793.38;;;11.67;100.00
7058;BME280;3570;43.080;25.628;2024-03-02T09:10:06;-19798.19;;;11.84;100.00
7058;BME280;3570;43.080;25.628;2024-03-02T09:12:50;-19792.50;;;11.64;100.00
7058;BME280;3570;43.080;25.628;2024-03-02T09:15:34;-19800.97;;;11.93;100.00
7058;BME280;3570;43.080;25.628;2024-03-02T09:18:21;-19808.69;;;12.20;100.00
7058;BME280;3570;43.080;25.628;2024-03-02T09:21:05;-19814.38;;;12.40;100.00
7058;BME280;3570;43.080;25.628;2024-03-02T09:23:50;-19819.19;;;12.56;100.00
7058;BME280;3570;43.080;25.628;2024-03-02T09:26:35;-19824.28;;;12.74;100.00
7058;BME280;3570;43.080;25.628;2024-03-02T09:29:19;-19832.47;;;13.02;100.00
7058;BME280;3570;43.080;25.628;2024-03-02T09:32:05;-19820.94;;;12.62;100.00
7058;BME280;3570;43.080;25.628;2024-03-02T09:34:50;-19826.94;;;12.83;100.00
7058;BME280;3570;43.080;25.628;2024-03-02T09:37:34;-19825.16;;;12.77;100.00
7058;BME280;3570;43.080;25.628;2024-03-02T09:40:21;-19821.38;;;12.64;100.00
7058;BME280;3570;43.080;25.628;2024-03-02T09:43:07;-19823.28;;;12.70;100.00
7058;BME280;3570;43.080;25.628;2024-03-02T09:45:51;-19825.59;;;12.78;100.00
7058;BME280;3570;43.080;25.628;2024-03-02T09:48:36;-19817.72;;;12.51;100.00
7058;BME280;3570;43.080;25.628;2024-03-02T09:51:20;-19823.13;;;12.70;100.00
7058;BME280;3570;43.080;25.628;2024-03-02T09:54:07;-19821.81;;;12.65;100.00
7058;BME280;3570;43.080;25.628;2024-03-02T09:56:51;-19824.59;;;12.75;100.00
7058;BME280;3570;43.080;25.628;2024-03-02T09:59:35;-19821.81;;;12.65;100.00
7058;BME280;3570;43.080;25.628;2024-03-02T10:02:19;-19816.56;;;12.47;100.00
7058;BME280;3570;43.080;25.628;2024-03-02T10:05:03;-19810.59;;;12.26;100.00
7058;BME280;3570;43.080;25.628;2024-03-02T10:07:59;-19821.66;;;12.65;100.00
7058;BME280;3570;43.080;25.628;2024-03-02T10:10:45;-19837.72;;;13.20;100.00
7058;BME280;3570;43.080;25.628;2024-03-02T10:13:29;-19838.59;;;13.23;100.00
7058;BME280;3570;43.080;25.628;2024-03-02T10:16:14;-19842.66;;;13.37;100.00
7058;BME280;3570;43.080;25.628;2024-03-02T10:22:05;-19846.75;;;13.51;100.00
7058;BME280;3570;43.080;25.628;2024-03-02T10:24:52;-19848.34;;;13.57;100.00
7058;BME280;3570;43.080;25.628;2024-03-02T10:27:37;-19845.44;;;13.47;100.00
7058;BME280;3570;43.080;25.628;2024-03-02T10:30:20;-19832.31;;;13.01;100.00
7058;BME280;3570;43.080;25.628;2024-03-02T10:33:05;-19811.31;;;12.29;100.00
7058;BME280;3570;43.080;25.628;2024-03-02T10:35:50;-19814.66;;;12.41;100.00
7058;BME280;3570;43.080;25.628;2024-03-02T10:38:34;-19834.94;;;13.10;100.00
7058;BME280;3570;43.080;25.628;2024-03-02T10:41:23;-19845.72;;;13.48;100.00
7058;BME280;3570;43.080;25.628;2024-03-02T10:44:09;-19852.88;;;13.72;100.00
7058;BME280;3570;43.080;25.628;2024-03-02T10:46:53;-19858.13;;;13.90;100.00
7058;BME280;3570;43.080;25.628;2024-03-02T10:49:41;-19866.28;;;14.18;100.00
7058;BME280;3570;43.080;25.628;2024-03-02T10:52:27;-19850.84;;;13.65;100.00
7058;BME280;3570;43.080;25.628;2024-03-02T10:55:11;-19855.63;;;13.82;100.00
7058;BME280;3570;43.080;25.628;2024-03-02T10:57:59;-19835.09;;;13.11;100.00
7058;BME280;3570;43.080;25.628;2024-03-02T11:00:45;-19844.13;;;13.42;100.00
7058;BME280;3570;43.080;25.628;2024-03-02T11:03:33;-19851.69;;;13.68;100.00
7058;BME280;3570;43.080;25.628;2024-03-02T11:06:19;-19849.66;;;13.61;100.00
7058;BME280;3570;43.080;25.628;2024-03-02T11:09:06;-19855.50;;;13.81;100.00
7058;BME280;3570;43.080;25.628;2024-03-02T11:14:56;-19835.81;;;13.13;100.00
7058;BME280;3570;43.080;25.628;2024-03-02T11:17:41;-19849.66;;;13.61;100.00
7058;BME280;3570;43.080;25.628;2024-03-02T11:20:26;-19864.38;;;14.12;100.00
7058;BME280;3570;43.080;25.628;2024-03-02T11:23:10;-19869.34;;;14.29;100.00
7058;BME280;3570;43.080;25.628;2024-03-02T11:25:54;-19861.47;;;14.02;100.00
7058;BME280;3570;43.080;25.628;2024-03-02T11:28:39;-19885.94;;;14.86;100.00
7058;BME280;3570;43.080;25.628;2024-03-02T11:31:57;-19871.53;;;14.37;100.00
7058;BME280;3570;43.080;25.628;2024-03-02T11:34:45;-19883.31;;;14.77;100.00
7058;BME280;3570;43.080;25.628;2024-03-02T11:37:30;-19870.66;;;14.34;100.00
7058;BME280;3570;43.080;25.628;2024-03-02T11:40:21;-19890.16;;;15.01;100.00
7058;BME280;3570;43.080;25.628;2024-03-02T11:43:06;-19891.63;;;15.06;100.00
7058;BME280;3570;43.080;25.628;2024-03-02T11:46:03;-19870.81;;;14.34;100.00
7058;BME280;3570;43.080;25.628;2024-03-02T11:48:50;-19851.56;;;13.68;100.00
7058;BME280;3570;43.080;25.628;2024-03-02T11:51:35;-19845.00;;;13.45;100.00
7058;BME280;3570;43.080;25.628;2024-03-02T11:54:20;-19833.63;;;13.06;100.00
7058;BME280;3570;43.080;25.628;2024-03-02T11:57:05;-19852.88;;;13.72;100.00
7058;BME280;3570;43.080;25.628;2024-03-02T11:59:50;-19835.81;;;13.13;100.00
7058;BME280;3570;43.080;25.628;2024-03-02T12:02:34;-19834.50;;;13.09;100.00
7058;BME280;3570;43.080;25.628;2024-03-02T12:05:19;-19840.34;;;13.29;100.00
7058;BME280;3570;43.080;25.628;2024-03-02T12:08:05;-19834.81;;;13.10;100.00
7058;BME280;3570;43.080;25.628;2024-03-02T12:10:58;-19836.13;;;13.14;100.00
7058;BME280;3570;43.080;25.628;2024-03-02T12:13:51;-19854.34;;;13.77;100.00
7058;BME280;3570;43.080;25.628;2024-03-02T12:16:36;-19849.09;;;13.59;100.00
7058;BME280;3570;43.080;25.628;2024-03-02T12:19:22;-19846.16;;;13.49;100.00
7058;BME280;3570;43.080;25.628;2024-03-02T12:22:06;-19823.41;;;12.71;100.00
7058;BME280;3570;43.080;25.628;2024-03-02T12:24:50;-19800.97;;;11.93;100.00
7058;BME280;3570;43.080;25.628;2024-03-02T12:27:34;-19814.38;;;12.40;100.00
7058;BME280;3570;43.080;25.628;2024-03-02T12:30:20;-19798.91;;;11.86;100.00
7058;BME280;3570;43.080;25.628;2024-03-02T12:33:04;-19797.47;;;11.81;100.00
7058;BME280;3570;43.080;25.628;2024-03-02T12:35:49;-19790.75;;;11.58;100.00
7058;BME280;3570;43.080;25.628;2024-03-02T12:38:33;-19784.91;;;11.38;100.00
7058;BME280;3570;43.080;25.628;2024-03-02T12:41:18;-19780.81;;;11.24;100.00
7058;BME280;3570;43.080;25.628;2024-03-02T12:44:02;-19777.91;;;11.14;100.00
7058;BME280;3570;43.080;25.628;2024-03-02T12:46:46;-19785.78;;;11.41;100.00
7058;BME280;3570;43.080;25.628;2024-03-02T12:49:30;-19779.66;;;11.20;100.00
7058;BME280;3570;43.080;25.628;2024-03-02T12:52:16;-19788.41;;;11.50;100.00
7058;BME280;3570;43.080;25.628;2024-03-02T12:55:03;-19795.56;;;11.75;100.00
7058;BME280;3570;43.080;25.628;2024-03-02T12:57:49;-19796.72;;;11.79;100.00
7058;BME280;3570;43.080;25.628;2024-03-02T13:00:34;-19808.25;;;12.18;100.00
7058;BME280;3570;43.080;25.628;2024-03-02T13:03:19;-19801.84;;;11.96;100.00
7058;BME280;3570;43.080;25.628;2024-03-02T13:06:07;-19801.84;;;11.96;100.00
7058;BME280;3570;43.080;25.628;2024-03-02T13:08:51;-19798.03;;;11.83;100.00
7058;BME280;3570;43.080;25.628;2024-03-02T13:11:35;-19778.91;;;11.17;100.00
7058;BME280;3570;43.080;25.628;2024-03-02T13:14:24;-19792.19;;;11.63;100.00
7058;BME280;3570;43.080;25.628;2024-03-02T13:17:09;-19789.00;;;11.52;100.00
7058;BME280;3570;43.080;25.628;2024-03-02T13:19:58;-19785.78;;;11.41;100.00
7058;BME280;3570;43.080;25.628;2024-03-02T13:22:43;-19780.53;;;11.23;100.00
7058;BME280;3570;43.080;25.628;2024-03-02T13:25:27;-19776.88;;;11.10;100.00
7058;BME280;3570;43.080;25.628;2024-03-02T13:28:10;-19771.91;;;10.93;100.00
7058;BME280;3570;43.080;25.628;2024-03-02T13:30:55;-19772.19;;;10.94;100.00
7058;BME280;3570;43.080;25.628;2024-03-02T13:33:39;-19772.19;;;10.94;100.00
7058;BME280;3570;43.080;25.628;2024-03-02T13:36:23;-19768.56;;;10.82;100.00
7058;BME280;3570;43.080;25.628;2024-03-02T13:39:07;-19768.56;;;10.82;100.00
7058;BME280;3570;43.080;25.628;2024-03-02T13:41:54;-19760.66;;;10.55;100.00
7058;BME280;3570;43.080;25.628;2024-03-02T13:44:46;-19758.03;;;10.46;100.00
7058;BME280;3570;43.080;25.628;2024-03-02T13:47:32;-19760.66;;;10.55;100.00
7058;BME280;3570;43.080;25.628;2024-03-02T13:50:16;-19760.06;;;10.53;100.00
7058;BME280;3570;43.080;25.628;2024-03-02T13:53:00;-19760.50;;;10.54;100.00
7058;BME280;3570;43.080;25.628;2024-03-02T13:55:44;-19755.09;;;10.35;100.00
7058;BME280;3570;43.080;25.628;2024-03-02T13:58:29;-19753.81;;;10.31;100.00
7058;BME280;3570;43.080;25.628;2024-03-02T14:01:15;-19751.59;;;10.23;100.00
7058;BME280;3570;43.080;25.628;2024-03-02T14:03:59;-19754.09;;;10.32;100.00
7058;BME280;3570;43.080;25.628;2024-03-02T14:06:44;-19752.34;;;10.26;100.00
7058;BME280;3570;43.080;25.628;2024-03-02T14:09:28;-19749.56;;;10.16;100.00
7058;BME280;3570;43.080;25.628;2024-03-02T14:12:12;-19757.44;;;10.43;100.00
7058;BME280;3570;43.080;25.628;2024-03-02T14:14:57;-19758.31;;;10.47;100.00
7058;BME280;3570;43.080;25.628;2024-03-02T14:17:46;-19760.06;;;10.53;100.00
7058;BME280;3570;43.080;25.628;2024-03-02T14:20:30;-19763.44;;;10.64;100.00
7058;BME280;3570;43.080;25.628;2024-03-02T14:23:14;-19759.94;;;10.52;100.00
7058;BME280;3570;43.080;25.628;2024-03-02T14:25:58;-19751.31;;;10.22;100.00
7058;BME280;3570;43.080;25.628;2024-03-02T14:28:43;-19759.34;;;10.50;100.00
7058;BME280;3570;43.080;25.628;2024-03-02T14:31:27;-19756.56;;;10.40;100.00
7058;BME280;3570;43.080;25.628;2024-03-02T14:34:11;-19752.78;;;10.27;100.00
7058;BME280;3570;43.080;25.628;2024-03-02T14:36:55;-19752.78;;;10.27;100.00
7058;BME280;3570;43.080;25.628;2024-03-02T14:39:40;-19752.03;;;10.25;100.00